createdAt,value
2019-02-28T00:00:54.715Z,4.30
2019-02-28T00:03:26.103Z,4.32
2019-02-28T00:05:57.543Z,4.25
2019-02-28T00:08:28.089Z,4.15
2019-02-28T00:10:58.633Z,4.27
2019-02-28T00:13:29.106Z,4.28
2019-02-28T00:16:00.198Z,4.27
2019-02-28T00:18:31.760Z,4.11
2019-02-28T00:21:06.051Z,4.15
2019-02-28T00:23:34.546Z,4.14
2019-02-28T00:26:05.034Z,3.98
2019-02-28T00:28:35.583Z,4.07
2019-02-28T00:31:06.023Z,4.00
2019-02-28T00:33:36.487Z,3.98
2019-02-28T00:36:06.913Z,3.97
2019-02-28T00:38:37.458Z,4.01
2019-02-28T00:41:09.317Z,4.00
2019-02-28T00:43:40.077Z,4.03
2019-02-28T00:46:11.016Z,4.03
2019-02-28T00:48:41.552Z,4.10
2019-02-28T00:51:12.000Z,4.08
2019-02-28T00:53:42.582Z,4.03
2019-02-28T00:56:12.999Z,3.94
2019-02-28T00:58:43.456Z,4.00
2019-02-28T01:01:13.882Z,4.09
2019-02-28T01:03:44.495Z,4.09
2019-02-28T01:06:14.923Z,4.18
2019-02-28T01:08:45.523Z,4.27
2019-02-28T01:11:16.050Z,4.31
2019-02-28T01:13:46.538Z,4.21
2019-02-28T01:16:19.338Z,4.31
2019-02-28T01:18:49.217Z,4.33
2019-02-28T01:21:23.727Z,4.35
2019-02-28T01:23:51.820Z,4.25
2019-02-28T01:26:22.236Z,4.19
2019-02-28T01:28:52.715Z,4.10
2019-02-28T01:31:23.157Z,4.06
2019-02-28T01:33:56.031Z,3.91
2019-02-28T01:36:26.062Z,3.93
2019-02-28T01:38:58.037Z,3.91
2019-02-28T01:41:28.672Z,3.78
2019-02-28T01:44:01.621Z,3.64
2019-02-28T01:46:31.271Z,3.52
2019-02-28T01:49:01.751Z,3.66
2019-02-28T01:51:35.635Z,3.71
2019-02-28T01:54:04.364Z,3.75
2019-02-28T01:56:36.993Z,3.56
2019-02-28T01:59:06.997Z,3.52
2019-02-28T02:01:37.413Z,3.44
2019-02-28T02:04:07.960Z,3.36
2019-02-28T02:06:38.399Z,3.30
2019-02-28T02:09:11.074Z,3.48
2019-02-28T02:11:41.215Z,3.58
2019-02-28T02:14:11.884Z,3.69
2019-02-28T02:16:43.330Z,3.74
2019-02-28T02:19:17.554Z,3.79
2019-02-28T02:21:45.909Z,3.86
2019-02-28T02:24:16.370Z,4.00
2019-02-28T02:26:46.879Z,4.08
2019-02-28T02:29:17.360Z,4.01
2019-02-28T02:31:47.963Z,3.97
2019-02-28T02:34:18.430Z,4.04
2019-02-28T02:36:52.949Z,4.00
2019-02-28T02:39:21.116Z,4.01
2019-02-28T02:41:51.605Z,3.94
2019-02-28T02:44:22.147Z,3.85
2019-02-28T02:46:55.935Z,3.77
2019-02-28T02:49:24.751Z,3.66
2019-02-28T02:51:55.198Z,3.72
2019-02-28T02:54:25.677Z,3.74
2019-02-28T02:56:56.175Z,3.77
2019-02-28T02:59:26.636Z,3.71
2019-02-28T03:01:57.252Z,3.68
2019-02-28T03:04:27.928Z,3.72
2019-02-28T03:06:58.347Z,3.70
2019-02-28T03:09:28.813Z,3.65
2019-02-28T03:11:59.325Z,3.66
2019-02-28T03:14:29.991Z,3.64
2019-02-28T03:17:00.445Z,3.63
2019-02-28T03:19:33.815Z,3.61
2019-02-28T03:22:03.129Z,3.63
2019-02-28T03:24:33.907Z,3.56
2019-02-28T03:27:04.433Z,3.54
2019-02-28T03:29:34.912Z,3.52
2019-02-28T03:32:05.357Z,3.55
2019-02-28T03:34:35.893Z,3.49
2019-02-28T03:37:06.352Z,3.41
2019-02-28T03:39:36.821Z,3.39
2019-02-28T03:42:07.341Z,3.41
2019-02-28T03:44:37.848Z,3.46
2019-02-28T03:47:08.283Z,3.49
2019-02-28T03:49:38.747Z,3.41
2019-02-28T03:52:09.202Z,3.35
2019-02-28T03:54:39.662Z,3.32
2019-02-28T03:57:10.106Z,3.25
2019-02-28T03:59:40.641Z,3.22
2019-02-28T04:02:11.159Z,3.20
2019-02-28T04:04:48.417Z,3.14
2019-02-28T04:07:16.127Z,3.18
2019-02-28T04:09:45.933Z,3.18
2019-02-28T04:12:16.400Z,3.18
2019-02-28T04:14:46.841Z,3.11
2019-02-28T04:17:17.258Z,3.09
2019-02-28T04:19:47.731Z,3.10
2019-02-28T04:22:19.536Z,3.12
2019-02-28T04:24:50.309Z,3.07
2019-02-28T04:27:20.750Z,3.09
2019-02-28T04:29:51.240Z,3.24
2019-02-28T04:32:26.391Z,3.28
2019-02-28T04:34:53.960Z,3.28
2019-02-28T04:37:24.462Z,3.21
2019-02-28T04:39:55.002Z,3.27
2019-02-28T04:42:25.516Z,3.28
2019-02-28T04:44:55.975Z,3.27
2019-02-28T04:47:26.425Z,3.26
2019-02-28T04:49:57.735Z,3.21
2019-02-28T04:52:29.490Z,3.25
2019-02-28T04:55:02.600Z,3.34
2019-02-28T04:57:32.179Z,3.34
2019-02-28T05:00:06.705Z,3.32
2019-02-28T05:02:39.668Z,3.42
2019-02-28T05:05:12.672Z,3.50
2019-02-28T05:07:42.532Z,3.51
2019-02-28T05:10:12.998Z,3.53
2019-02-28T05:12:43.509Z,3.58
2019-02-28T05:15:14.723Z,3.54
2019-02-28T05:17:45.159Z,3.54
2019-02-28T05:20:15.694Z,3.51
2019-02-28T05:22:46.200Z,3.45
2019-02-28T05:25:18.657Z,3.43
2019-02-28T05:27:48.945Z,3.45
2019-02-28T05:30:19.894Z,3.44
2019-02-28T05:32:50.464Z,3.51
2019-02-28T05:35:25.472Z,3.67
2019-02-28T05:37:53.229Z,3.72
2019-02-28T05:40:23.698Z,3.88
2019-02-28T05:42:54.735Z,3.97
2019-02-28T05:45:26.334Z,3.97
2019-02-28T05:47:56.766Z,3.98
2019-02-28T05:50:27.240Z,4.02
2019-02-28T05:52:57.677Z,4.00
2019-02-28T05:55:28.171Z,3.97
2019-02-28T05:57:58.677Z,3.92
2019-02-28T06:00:29.209Z,3.95
2019-02-28T06:02:59.695Z,3.96
2019-02-28T06:05:30.235Z,4.01
2019-02-28T06:08:03.591Z,4.01
2019-02-28T06:10:32.869Z,3.95
2019-02-28T06:13:03.446Z,3.96
2019-02-28T06:15:34.241Z,3.97
2019-02-28T06:18:06.076Z,3.96
2019-02-28T06:20:36.533Z,4.11
2019-02-28T06:23:09.287Z,4.19
2019-02-28T06:25:39.574Z,4.24
2019-02-28T06:28:12.056Z,4.40
2019-02-28T06:30:42.877Z,4.45
2019-02-28T06:33:13.584Z,4.63
2019-02-28T06:35:44.050Z,4.80
2019-02-28T06:38:16.280Z,4.84
2019-02-28T06:40:46.662Z,5.01
2019-02-28T06:43:18.816Z,5.12
2019-02-28T06:45:49.337Z,5.19
2019-02-28T06:48:20.855Z,5.26
2019-02-28T06:50:51.967Z,5.39
2019-02-28T06:53:23.484Z,5.49
2019-02-28T06:55:54.009Z,5.54
2019-02-28T06:58:24.461Z,5.62
2019-02-28T07:00:54.934Z,5.63
2019-02-28T07:03:25.387Z,5.67
2019-02-28T07:05:57.545Z,5.70
2019-02-28T07:08:28.980Z,5.67
2019-02-28T07:10:59.531Z,5.74
2019-02-28T07:13:31.137Z,5.83
2019-02-28T07:16:01.668Z,5.89
2019-02-28T07:18:32.207Z,5.91
2019-02-28T07:21:02.654Z,5.93
2019-02-28T07:23:33.070Z,6.03
2019-02-28T07:26:03.550Z,6.12
2019-02-28T07:28:37.428Z,6.09
2019-02-28T07:31:06.118Z,6.18
2019-02-28T07:33:36.537Z,6.22
2019-02-28T07:36:09.317Z,6.27
2019-02-28T07:38:40.305Z,6.36
2019-02-28T07:41:10.836Z,6.38
2019-02-28T07:43:45.943Z,6.45
2019-02-28T07:46:13.425Z,6.58
2019-02-28T07:48:43.920Z,6.58
2019-02-28T07:51:14.395Z,6.73
2019-02-28T07:53:44.821Z,6.79
2019-02-28T07:56:15.297Z,6.85
2019-02-28T07:58:45.791Z,6.96
2019-02-28T08:01:18.369Z,7.09
2019-02-28T08:03:48.392Z,7.10
2019-02-28T08:06:18.863Z,7.26
2019-02-28T08:08:49.284Z,7.35
2019-02-28T08:11:20.605Z,7.49
2019-02-28T08:13:52.323Z,7.60
2019-02-28T08:16:22.813Z,7.72
2019-02-28T08:18:53.226Z,7.81
2019-02-28T08:21:23.690Z,7.95
2019-02-28T08:23:54.176Z,8.01
2019-02-28T08:26:24.637Z,8.09
2019-02-28T08:28:55.132Z,8.17
2019-02-28T08:31:28.303Z,8.33
2019-02-28T08:33:57.769Z,8.44
2019-02-28T08:36:28.236Z,8.46
2019-02-28T08:38:58.663Z,8.51
2019-02-28T08:41:29.495Z,8.56
2019-02-28T08:43:59.995Z,8.63
2019-02-28T08:46:30.535Z,8.67
2019-02-28T08:49:06.312Z,8.74
2019-02-28T08:51:34.057Z,8.76
2019-02-28T08:54:06.071Z,8.79
2019-02-28T08:56:36.658Z,8.93
2019-02-28T08:59:11.732Z,8.88
2019-02-28T09:01:41.329Z,9.00
2019-02-28T09:04:11.501Z,8.93
2019-02-28T09:06:41.971Z,8.92
2019-02-28T09:09:14.598Z,9.03
2019-02-28T09:11:44.686Z,9.01
2019-02-28T09:14:17.828Z,9.15
2019-02-28T09:16:47.339Z,9.19
2019-02-28T09:19:17.828Z,9.33
2019-02-28T09:21:49.397Z,9.33
2019-02-28T09:24:20.465Z,9.47
2019-02-28T09:26:51.344Z,9.51
2019-02-28T09:29:22.236Z,9.54
2019-02-28T09:31:53.684Z,9.59
2019-02-28T09:34:24.111Z,9.61
2019-02-28T09:36:56.674Z,9.67
2019-02-28T09:39:26.765Z,9.81
2019-02-28T09:41:57.283Z,9.88
2019-02-28T09:44:31.509Z,9.93
2019-02-28T09:46:59.869Z,10.16
2019-02-28T09:49:30.365Z,10.18
2019-02-28T09:52:03.219Z,10.27
2019-02-28T09:54:32.961Z,10.28
2019-02-28T09:57:03.448Z,10.37
2019-02-28T09:59:37.347Z,10.38
2019-02-28T10:02:08.389Z,10.42
2019-02-28T10:04:38.241Z,10.51
2019-02-28T10:07:08.787Z,10.50
2019-02-28T10:09:43.867Z,10.65
2019-02-28T10:12:13.091Z,10.76
2019-02-28T10:14:43.595Z,10.80
2019-02-28T10:17:14.134Z,10.88
2019-02-28T10:19:45.950Z,11.01
2019-02-28T10:22:17.703Z,11.09
2019-02-28T10:24:48.126Z,11.01
2019-02-28T10:27:18.595Z,11.07
2019-02-28T10:29:49.019Z,11.06
2019-02-28T10:32:19.494Z,11.17
2019-02-28T10:34:50.001Z,11.23
2019-02-28T10:37:22.857Z,11.36
2019-02-28T10:39:52.695Z,11.30
2019-02-28T10:42:24.136Z,11.45
2019-02-28T10:44:54.561Z,11.44
2019-02-28T10:47:28.140Z,11.50
2019-02-28T10:49:58.238Z,11.62
2019-02-28T10:52:30.601Z,11.52
2019-02-28T10:55:01.158Z,11.63
2019-02-28T10:57:31.873Z,11.71
2019-02-28T11:00:02.294Z,11.61
2019-02-28T11:02:33.035Z,11.73
2019-02-28T11:05:03.472Z,11.72
2019-02-28T11:07:37.376Z,11.67
2019-02-28T11:10:08.835Z,11.88
2019-02-28T11:12:39.387Z,11.92
2019-02-28T11:15:10.430Z,11.92
2019-02-28T11:17:42.425Z,11.77
2019-02-28T11:20:21.855Z,11.90
2019-02-28T11:22:45.085Z,12.01
2019-02-28T11:25:16.945Z,12.11
2019-02-28T11:27:47.481Z,11.86
2019-02-28T11:30:24.164Z,11.95
2019-02-28T11:32:54.634Z,11.85
2019-02-28T11:35:25.050Z,11.91
2019-02-28T11:37:56.231Z,12.05
2019-02-28T11:40:28.909Z,12.15
2019-02-28T11:43:02.817Z,12.29
2019-02-28T11:45:36.427Z,12.26
2019-02-28T11:48:19.358Z,12.42
2019-02-28T11:50:48.127Z,12.03
2019-02-28T11:53:19.260Z,11.91
2019-02-28T11:55:53.408Z,11.88
2019-02-28T11:58:22.024Z,12.19
2019-02-28T12:00:52.898Z,12.14
2019-02-28T12:03:23.499Z,12.22
2019-02-28T12:05:53.995Z,12.35
2019-02-28T12:08:24.535Z,12.29
2019-02-28T12:10:55.044Z,12.53
2019-02-28T12:13:25.574Z,12.50
2019-02-28T12:15:57.434Z,13.00
2019-02-28T12:18:27.972Z,14.48
2019-02-28T12:20:58.630Z,14.51
2019-02-28T12:23:30.556Z,14.74
2019-02-28T12:26:01.087Z,14.21
2019-02-28T12:28:32.003Z,13.96
2019-02-28T12:31:02.432Z,14.27
2019-02-28T12:33:33.001Z,14.77
2019-02-28T12:36:03.632Z,15.03
2019-02-28T12:38:34.182Z,15.10
2019-02-28T12:41:04.803Z,14.08
2019-02-28T12:43:35.346Z,15.20
2019-02-28T12:46:06.739Z,15.25
2019-02-28T12:48:37.353Z,15.71
2019-02-28T12:51:07.853Z,16.13
2019-02-28T12:53:38.406Z,16.29
2019-02-28T12:56:11.265Z,15.55
2019-02-28T12:58:41.722Z,15.47
2019-02-28T13:01:12.394Z,16.86
2019-02-28T13:03:42.933Z,17.05
2019-02-28T13:06:13.423Z,16.33
2019-02-28T13:08:43.973Z,16.16
2019-02-28T13:11:15.365Z,16.26
2019-02-28T13:13:45.851Z,16.39
2019-02-28T13:16:17.441Z,15.86
2019-02-28T13:18:48.438Z,16.33
2019-02-28T13:21:18.945Z,16.47
2019-02-28T13:23:49.435Z,15.87
2019-02-28T13:26:19.852Z,15.60
2019-02-28T13:28:50.363Z,15.98
2019-02-28T13:31:20.870Z,16.25
2019-02-28T13:33:52.764Z,16.54
2019-02-28T13:36:24.043Z,15.46
2019-02-28T13:38:55.865Z,15.17
2019-02-28T13:41:27.731Z,14.36
2019-02-28T13:43:59.521Z,14.11
2019-02-28T13:46:33.943Z,13.93
2019-02-28T13:49:03.965Z,14.70
2019-02-28T13:51:40.595Z,14.65
2019-02-28T13:54:07.429Z,15.08
2019-02-28T13:56:37.866Z,14.74
2019-02-28T13:59:08.439Z,14.51
2019-02-28T14:01:38.864Z,13.51
2019-02-28T14:04:09.358Z,13.19
2019-02-28T14:06:39.784Z,13.17
2019-02-28T14:09:10.255Z,13.17
2019-02-28T14:11:41.836Z,13.15
2019-02-28T14:14:12.929Z,13.15
2019-02-28T14:16:43.432Z,12.94
2019-02-28T14:19:16.707Z,12.96
2019-02-28T14:21:46.168Z,12.88
2019-02-28T14:24:16.722Z,12.99
2019-02-28T14:26:49.540Z,12.97
2019-02-28T14:29:19.713Z,13.00
2019-02-28T14:31:50.151Z,12.86
2019-02-28T14:34:20.686Z,12.89
2019-02-28T14:36:51.469Z,12.73
2019-02-28T14:39:22.036Z,12.45
2019-02-28T14:41:52.763Z,12.22
2019-02-28T14:44:24.515Z,12.32
2019-02-28T14:46:54.947Z,12.25
2019-02-28T14:49:25.517Z,12.20
2019-02-28T14:51:56.010Z,12.24
2019-02-28T14:54:26.555Z,12.24
2019-02-28T14:56:56.975Z,12.13
2019-02-28T14:59:28.594Z,12.00
2019-02-28T15:01:59.653Z,11.86
2019-02-28T15:04:30.245Z,11.82
2019-02-28T15:07:03.013Z,11.75
2019-02-28T15:09:33.046Z,11.74
2019-02-28T15:12:03.616Z,11.61
2019-02-28T15:14:34.164Z,11.51
2019-02-28T15:17:06.809Z,11.42
2019-02-28T15:19:36.966Z,11.29
2019-02-28T15:22:07.464Z,11.20
2019-02-28T15:24:40.560Z,11.09
2019-02-28T15:27:10.114Z,10.97
2019-02-28T15:29:40.777Z,10.84
2019-02-28T15:32:11.199Z,10.73
2019-02-28T15:34:42.092Z,10.71
2019-02-28T15:37:13.070Z,10.59
2019-02-28T15:39:43.610Z,10.49
2019-02-28T15:42:14.036Z,10.46
2019-02-28T15:44:44.577Z,10.38
2019-02-28T15:47:15.024Z,10.28
2019-02-28T15:49:45.552Z,10.16
2019-02-28T15:52:16.081Z,10.06
2019-02-28T15:54:46.556Z,9.95
2019-02-28T15:57:17.076Z,9.82
2019-02-28T15:59:49.827Z,9.71
2019-02-28T16:02:19.787Z,9.63
2019-02-28T16:04:50.251Z,9.51
2019-02-28T16:07:20.684Z,9.38
2019-02-28T16:09:54.063Z,9.26
2019-02-28T16:12:23.357Z,9.19
2019-02-28T16:14:53.866Z,9.06
2019-02-28T16:17:24.283Z,8.95
2019-02-28T16:19:56.247Z,8.88
2019-02-28T16:22:27.034Z,8.77
2019-02-28T16:24:57.576Z,8.67
2019-02-28T16:27:29.613Z,8.58
2019-02-28T16:30:01.327Z,8.46
2019-02-28T16:32:33.421Z,8.29
2019-02-28T16:37:39.866Z,8.17
2019-02-28T16:40:20.709Z,8.02
2019-02-28T16:42:51.891Z,7.90
2019-02-28T16:45:29.655Z,7.83
2019-02-28T16:48:03.015Z,7.73
2019-02-28T16:50:33.686Z,7.69
2019-02-28T16:53:04.314Z,7.58
2019-02-28T16:55:34.879Z,7.45
2019-02-28T16:58:05.388Z,7.33
2019-02-28T17:00:35.895Z,7.18
2019-02-28T17:03:07.317Z,7.06
2019-02-28T17:05:38.693Z,6.91
2019-02-28T17:08:09.208Z,6.77
2019-02-28T17:10:43.242Z,6.65
2019-02-28T17:13:22.428Z,6.55
2019-02-28T17:16:10.749Z,6.45
2019-02-28T17:18:42.324Z,6.31
2019-02-28T17:21:16.718Z,6.19
2019-02-28T17:23:45.361Z,6.10
2019-02-28T17:26:16.031Z,6.06
2019-02-28T17:28:53.914Z,5.96
2019-02-28T17:31:31.824Z,5.89
2019-02-28T17:34:02.343Z,5.81
2019-02-28T17:36:32.872Z,5.72
2019-02-28T17:42:08.326Z,5.64
2019-02-28T17:44:40.583Z,5.57
2019-02-28T17:47:26.391Z,5.54
2019-02-28T17:50:05.754Z,5.42
2019-02-28T17:52:53.714Z,5.38
2019-02-28T17:56:03.868Z,5.30
2019-02-28T17:58:56.118Z,5.24
2019-02-28T18:01:48.028Z,5.16
2019-02-28T18:04:37.043Z,5.11
2019-02-28T18:07:36.425Z,5.02
2019-02-28T18:10:32.502Z,5.05
2019-02-28T18:13:12.504Z,4.98
2019-02-28T18:15:52.181Z,4.96
2019-02-28T18:18:25.881Z,5.02
2019-02-28T18:21:20.571Z,5.03
2019-02-28T18:24:10.950Z,4.90
2019-02-28T18:26:56.606Z,4.83
2019-02-28T18:29:39.207Z,4.77
2019-02-28T18:32:09.993Z,4.71
2019-02-28T18:34:40.500Z,4.63
2019-02-28T18:37:11.910Z,4.57
2019-02-28T18:39:44.717Z,4.49
2019-02-28T18:42:16.082Z,4.47
2019-02-28T18:44:47.107Z,4.41
2019-02-28T18:47:18.642Z,4.37
2019-02-28T18:49:49.161Z,4.33
2019-02-28T18:52:20.246Z,4.26
2019-02-28T18:54:50.986Z,4.21
2019-02-28T18:57:27.795Z,4.10
2019-02-28T18:59:58.329Z,4.12
2019-02-28T19:02:29.966Z,4.05
2019-02-28T19:05:00.497Z,4.01
2019-02-28T19:07:31.144Z,4.05
2019-02-28T19:10:01.745Z,4.13
2019-02-28T19:12:32.479Z,4.03
2019-02-28T19:15:03.188Z,4.05
2019-02-28T19:17:34.102Z,4.03
2019-02-28T19:20:07.442Z,4.04
2019-02-28T19:22:38.075Z,3.96
2019-02-28T19:25:10.613Z,3.76
2019-02-28T19:27:41.162Z,3.63
2019-02-28T19:30:13.923Z,3.55
2019-02-28T19:32:48.686Z,3.52
2019-02-28T19:35:20.103Z,3.46
2019-02-28T19:37:50.652Z,3.49
2019-02-28T19:40:21.177Z,3.54
2019-02-28T19:42:51.776Z,3.65
2019-02-28T19:45:29.519Z,3.53
2019-02-28T19:48:00.009Z,3.40
2019-02-28T19:50:30.475Z,3.51
2019-02-28T19:53:01.031Z,3.55
2019-02-28T19:55:32.690Z,3.42
2019-02-28T19:58:03.596Z,3.37
2019-02-28T20:00:34.054Z,3.30
2019-02-28T20:03:04.708Z,3.30
2019-02-28T20:05:35.304Z,3.26
2019-02-28T20:08:05.836Z,3.29
2019-02-28T20:10:36.292Z,3.11
2019-02-28T20:13:06.844Z,3.03
2019-02-28T20:15:39.177Z,3.11
2019-02-28T20:18:09.823Z,3.14
2019-02-28T20:20:40.407Z,3.12
2019-02-28T20:23:10.938Z,3.10
2019-02-28T20:25:41.376Z,3.11
2019-02-28T20:28:11.924Z,3.05
2019-02-28T20:30:42.450Z,3.05
2019-02-28T20:33:13.134Z,3.04
2019-02-28T20:35:43.663Z,3.09
2019-02-28T20:38:15.197Z,3.14
2019-02-28T20:40:46.711Z,3.11
2019-02-28T20:43:17.396Z,3.04
2019-02-28T20:45:47.907Z,2.98
2019-02-28T20:48:25.268Z,2.97
2019-02-28T20:50:55.784Z,2.99
2019-02-28T20:53:26.336Z,3.00
2019-02-28T20:55:56.852Z,3.03
2019-02-28T20:58:27.379Z,2.88
2019-02-28T21:00:57.874Z,2.90
2019-02-28T21:03:28.420Z,2.86
2019-02-28T21:05:58.924Z,2.85
2019-02-28T21:08:29.453Z,2.90
2019-02-28T21:11:00.012Z,2.79
2019-02-28T21:13:30.554Z,2.76
2019-02-28T21:16:01.085Z,2.74
2019-02-28T21:18:31.640Z,2.68
2019-02-28T21:21:02.186Z,2.55
2019-02-28T21:23:32.738Z,2.45
2019-02-28T21:26:03.252Z,2.50
2019-02-28T21:28:33.814Z,2.65
2019-02-28T21:31:05.093Z,2.68
2019-02-28T21:33:36.827Z,2.70
2019-02-28T21:36:07.326Z,2.67
2019-02-28T21:38:38.858Z,2.73
2019-02-28T21:41:09.433Z,2.71
2019-02-28T21:43:40.159Z,2.73
2019-02-28T21:46:10.656Z,2.74
2019-02-28T21:48:42.299Z,2.72
2019-02-28T21:51:13.834Z,2.72
2019-02-28T21:53:44.347Z,2.78
2019-02-28T21:56:14.863Z,2.66
2019-02-28T21:58:45.479Z,2.63
2019-02-28T22:01:15.908Z,2.51
2019-02-28T22:03:46.451Z,2.40
2019-02-28T22:06:16.952Z,2.40
2019-02-28T22:08:47.438Z,2.42
2019-02-28T22:11:17.945Z,2.33
2019-02-28T22:13:48.400Z,2.30
2019-02-28T22:16:18.916Z,2.25
2019-02-28T22:18:49.391Z,2.22
2019-02-28T22:21:19.865Z,2.16
2019-02-28T22:23:50.305Z,2.09
2019-02-28T22:26:20.822Z,2.11
2019-02-28T22:28:51.360Z,2.10
2019-02-28T22:31:26.904Z,2.09
2019-02-28T22:34:01.783Z,2.03
2019-02-28T22:36:33.924Z,1.91
2019-02-28T22:39:05.302Z,1.88
2019-02-28T22:41:37.340Z,1.84
2019-02-28T22:44:07.879Z,1.82
2019-02-28T22:46:38.324Z,1.89
2019-02-28T22:49:08.797Z,2.17
2019-02-28T22:51:39.236Z,2.31
2019-02-28T22:54:09.817Z,2.40
2019-02-28T22:56:40.346Z,2.43
2019-02-28T22:59:10.890Z,2.67
2019-02-28T23:01:41.778Z,2.82
2019-02-28T23:04:12.324Z,2.95
2019-02-28T23:06:42.729Z,3.00
2019-02-28T23:09:13.191Z,3.09
2019-02-28T23:11:43.705Z,3.16
2019-02-28T23:14:14.184Z,3.13
2019-02-28T23:16:44.691Z,3.13
2019-02-28T23:19:15.186Z,3.20
2019-02-28T23:21:46.076Z,3.19
2019-02-28T23:24:16.740Z,3.25
2019-02-28T23:27:07.155Z,3.30
2019-02-28T23:29:40.914Z,3.35
2019-02-28T23:32:32.693Z,3.40
2019-02-28T23:35:04.130Z,3.43
2019-02-28T23:37:34.626Z,3.45
2019-02-28T23:40:06.440Z,3.43
2019-02-28T23:42:36.954Z,3.45
2019-02-28T23:45:08.041Z,3.38
2019-02-28T23:47:38.528Z,3.41
2019-02-28T23:50:09.875Z,3.44
2019-02-28T23:52:40.331Z,3.52
2019-02-28T23:55:10.771Z,3.53
2019-02-28T23:57:41.216Z,3.63
